sensor_id;sensor_type;location;lat;lon;timestamp;temperature;humidity
8408;DHT22;4241;48.452;9.216;2023-05-29T00:00:41;14.80;99.90
8408;DHT22;4241;48.452;9.216;2023-05-29T00:03:09;14.80;99.90
8408;DHT22;4241;48.452;9.216;2023-05-29T00:05:37;14.70;99.90
8408;DHT22;4241;48.452;9.216;2023-05-29T00:08:05;14.70;99.90
8408;DHT22;4241;48.452;9.216;2023-05-29T00:10:32;14.80;99.90
8408;DHT22;4241;48.452;9.216;2023-05-29T00:12:58;14.70;99.90
8408;DHT22;4241;48.452;9.216;2023-05-29T00:15:27;14.60;99.90
8408;DHT22;4241;48.452;9.216;2023-05-29T00:17:54;14.40;99.90
8408;DHT22;4241;48.452;9.216;2023-05-29T00:20:20;14.30;99.90
8408;DHT22;4241;48.452;9.216;2023-05-29T00:22:49;14.30;99.90
8408;DHT22;4241;48.452;9.216;2023-05-29T00:25:15;14.30;99.90
8408;DHT22;4241;48.452;9.216;2023-05-29T00:27:42;14.30;99.90
8408;DHT22;4241;48.452;9.216;2023-05-29T00:30:10;14.30;99.90
8408;DHT22;4241;48.452;9.216;2023-05-29T00:32:37;14.30;99.90
8408;DHT22;4241;48.452;9.216;2023-05-29T00:35:04;14.20;99.90
8408;DHT22;4241;48.452;9.216;2023-05-29T00:37:31;14.20;99.90
8408;DHT22;4241;48.452;9.216;2023-05-29T00:39:59;14.20;99.90
8408;DHT22;4241;48.452;9.216;2023-05-29T00:42:26;14.10;99.90
8408;DHT22;4241;48.452;9.216;2023-05-29T00:44:53;14.20;99.90
8408;DHT22;4241;48.452;9.216;2023-05-29T00:47:20;14.10;99.90
8408;DHT22;4241;48.452;9.216;2023-05-29T00:49:47;14.10;99.90
8408;DHT22;4241;48.452;9.216;2023-05-29T00:52:17;14.10;99.90
8408;DHT22;4241;48.452;9.216;2023-05-29T00:54:45;14.10;99.90
8408;DHT22;4241;48.452;9.216;2023-05-29T00:57:14;14.10;99.90
8408;DHT22;4241;48.452;9.216;2023-05-29T00:59:44;14.00;99.90
8408;DHT22;4241;48.452;9.216;2023-05-29T01:02:11;14.00;99.90
8408;DHT22;4241;48.452;9.216;2023-05-29T01:04:38;14.00;99.90
8408;DHT22;4241;48.452;9.216;2023-05-29T01:07:05;13.30;99.90
8408;DHT22;4241;48.452;9.216;2023-05-29T01:09:35;14.00;99.90
8408;DHT22;4241;48.452;9.216;2023-05-29T01:12:10;13.90;99.90
8408;DHT22;4241;48.452;9.216;2023-05-29T01:14:48;14.00;99.90
8408;DHT22;4241;48.452;9.216;2023-05-29T01:17:23;13.80;99.90
8408;DHT22;4241;48.452;9.216;2023-05-29T01:20:08;13.90;99.90
8408;DHT22;4241;48.452;9.216;2023-05-29T01:23:03;13.80;99.90
8408;DHT22;4241;48.452;9.216;2023-05-29T01:25:44;13.80;99.90
8408;DHT22;4241;48.452;9.216;2023-05-29T01:28:16;13.70;99.90
8408;DHT22;4241;48.452;9.216;2023-05-29T01:30:47;13.60;99.90
8408;DHT22;4241;48.452;9.216;2023-05-29T01:33:14;13.60;99.90
8408;DHT22;4241;48.452;9.216;2023-05-29T01:35:41;13.50;99.90
8408;DHT22;4241;48.452;9.216;2023-05-29T01:38:08;13.40;99.90
8408;DHT22;4241;48.452;9.216;2023-05-29T01:40:35;13.30;99.90
8408;DHT22;4241;48.452;9.216;2023-05-29T01:43:02;13.20;99.90
8408;DHT22;4241;48.452;9.216;2023-05-29T01:45:31;13.30;99.90
8408;DHT22;4241;48.452;9.216;2023-05-29T01:47:58;13.20;99.90
8408;DHT22;4241;48.452;9.216;2023-05-29T01:50:25;13.20;99.90
8408;DHT22;4241;48.452;9.216;2023-05-29T01:52:52;13.20;99.90
8408;DHT22;4241;48.452;9.216;2023-05-29T01:55:19;13.20;99.90
8408;DHT22;4241;48.452;9.216;2023-05-29T01:57:46;13.20;99.90
8408;DHT22;4241;48.452;9.216;2023-05-29T02:00:17;13.20;99.90
8408;DHT22;4241;48.452;9.216;2023-05-29T02:02:45;13.20;99.90
8408;DHT22;4241;48.452;9.216;2023-05-29T02:05:12;13.10;99.90
8408;DHT22;4241;48.452;9.216;2023-05-29T02:07:39;13.00;99.90
8408;DHT22;4241;48.452;9.216;2023-05-29T02:10:06;13.00;99.90
8408;DHT22;4241;48.452;9.216;2023-05-29T02:12:33;13.00;99.90
8408;DHT22;4241;48.452;9.216;2023-05-29T02:15:00;13.00;99.90
8408;DHT22;4241;48.452;9.216;2023-05-29T02:17:27;12.90;99.90
8408;DHT22;4241;48.452;9.216;2023-05-29T02:19:55;12.90;99.90
8408;DHT22;4241;48.452;9.216;2023-05-29T02:22:22;12.80;99.90
8408;DHT22;4241;48.452;9.216;2023-05-29T02:24:48;12.90;99.90
8408;DHT22;4241;48.452;9.216;2023-05-29T02:27:15;12.90;99.90
8408;DHT22;4241;48.452;9.216;2023-05-29T02:29:42;12.80;99.90
8408;DHT22;4241;48.452;9.216;2023-05-29T02:32:09;12.80;99.90
8408;DHT22;4241;48.452;9.216;2023-05-29T02:34:36;12.70;99.90
8408;DHT22;4241;48.452;9.216;2023-05-29T02:37:04;12.70;99.90
8408;DHT22;4241;48.452;9.216;2023-05-29T02:39:31;12.70;99.90
8408;DHT22;4241;48.452;9.216;2023-05-29T02:41:57;12.60;99.90
8408;DHT22;4241;48.452;9.216;2023-05-29T02:44:24;12.60;99.90
8408;DHT22;4241;48.452;9.216;2023-05-29T02:46:51;12.70;99.90
8408;DHT22;4241;48.452;9.216;2023-05-29T02:49:18;12.90;99.90
8408;DHT22;4241;48.452;9.216;2023-05-29T02:51:45;12.70;99.90
8408;DHT22;4241;48.452;9.216;2023-05-29T02:54:13;12.60;99.90
8408;DHT22;4241;48.452;9.216;2023-05-29T02:56:39;12.40;99.90
8408;DHT22;4241;48.452;9.216;2023-05-29T02:59:06;12.50;99.90
8408;DHT22;4241;48.452;9.216;2023-05-29T03:01:33;12.30;99.90
8408;DHT22;4241;48.452;9.216;2023-05-29T03:04:00;12.50;99.90
8408;DHT22;4241;48.452;9.216;2023-05-29T03:06:27;12.50;99.90
8408;DHT22;4241;48.452;9.216;2023-05-29T03:08:54;12.40;99.90
8408;DHT22;4241;48.452;9.216;2023-05-29T03:11:22;12.50;99.90
8408;DHT22;4241;48.452;9.216;2023-05-29T03:13:50;12.60;99.90
8408;DHT22;4241;48.452;9.216;2023-05-29T03:16:17;12.30;99.90
8408;DHT22;4241;48.452;9.216;2023-05-29T03:18:43;12.30;99.90
8408;DHT22;4241;48.452;9.216;2023-05-29T03:21:10;12.30;99.90
8408;DHT22;4241;48.452;9.216;2023-05-29T03:23:37;12.50;99.90
8408;DHT22;4241;48.452;9.216;2023-05-29T03:26:04;12.30;99.90
8408;DHT22;4241;48.452;9.216;2023-05-29T03:28:32;12.30;99.90
8408;DHT22;4241;48.452;9.216;2023-05-29T03:30:59;12.30;99.90
8408;DHT22;4241;48.452;9.216;2023-05-29T03:33:27;12.30;99.90
8408;DHT22;4241;48.452;9.216;2023-05-29T03:35:54;12.20;99.90
8408;DHT22;4241;48.452;9.216;2023-05-29T03:38:21;12.40;99.90
8408;DHT22;4241;48.452;9.216;2023-05-29T03:40:47;12.50;99.90
8408;DHT22;4241;48.452;9.216;2023-05-29T03:43:14;12.30;99.90
8408;DHT22;4241;48.452;9.216;2023-05-29T03:45:42;12.40;99.90
8408;DHT22;4241;48.452;9.216;2023-05-29T03:48:09;12.10;99.90
8408;DHT22;4241;48.452;9.216;2023-05-29T03:50:36;12.10;99.90
8408;DHT22;4241;48.452;9.216;2023-05-29T03:53:02;12.00;99.90
8408;DHT22;4241;48.452;9.216;2023-05-29T03:55:29;12.00;99.90
8408;DHT22;4241;48.452;9.216;2023-05-29T03:57:57;12.30;99.90
8408;DHT22;4241;48.452;9.216;2023-05-29T04:00:24;12.00;99.90
8408;DHT22;4241;48.452;9.216;2023-05-29T04:02:54;11.90;99.90
8408;DHT22;4241;48.452;9.216;2023-05-29T04:05:21;12.10;99.90
8408;DHT22;4241;48.452;9.216;2023-05-29T04:07:48;12.10;99.90
8408;DHT22;4241;48.452;9.216;2023-05-29T04:10:15;12.30;99.90
8408;DHT22;4241;48.452;9.216;2023-05-29T04:12:42;12.00;99.90
8408;DHT22;4241;48.452;9.216;2023-05-29T04:15:09;12.10;99.90
8408;DHT22;4241;48.452;9.216;2023-05-29T04:17:36;12.00;99.90
8408;DHT22;4241;48.452;9.216;2023-05-29T04:20:05;12.00;99.90
8408;DHT22;4241;48.452;9.216;2023-05-29T04:22:34;12.00;99.90
8408;DHT22;4241;48.452;9.216;2023-05-29T04:25:01;12.00;99.90
8408;DHT22;4241;48.452;9.216;2023-05-29T04:27:29;12.30;99.90
8408;DHT22;4241;48.452;9.216;2023-05-29T04:29:57;12.10;99.90
8408;DHT22;4241;48.452;9.216;2023-05-29T04:32:24;12.30;99.90
8408;DHT22;4241;48.452;9.216;2023-05-29T04:34:51;12.40;99.90
8408;DHT22;4241;48.452;9.216;2023-05-29T04:37:19;12.50;99.90
8408;DHT22;4241;48.452;9.216;2023-05-29T04:39:55;12.20;99.90
8408;DHT22;4241;48.452;9.216;2023-05-29T04:42:23;12.40;99.90
8408;DHT22;4241;48.452;9.216;2023-05-29T04:44:50;12.30;99.90
8408;DHT22;4241;48.452;9.216;2023-05-29T04:47:18;12.50;99.90
8408;DHT22;4241;48.452;9.216;2023-05-29T04:49:45;12.60;99.90
8408;DHT22;4241;48.452;9.216;2023-05-29T04:52:14;12.30;99.90
8408;DHT22;4241;48.452;9.216;2023-05-29T04:54:43;12.30;99.90
8408;DHT22;4241;48.452;9.216;2023-05-29T04:57:09;12.70;99.90
8408;DHT22;4241;48.452;9.216;2023-05-29T04:59:37;12.50;99.90
8408;DHT22;4241;48.452;9.216;2023-05-29T05:02:04;12.50;99.90
8408;DHT22;4241;48.452;9.216;2023-05-29T05:04:31;12.80;99.90
8408;DHT22;4241;48.452;9.216;2023-05-29T05:06:58;12.70;99.90
8408;DHT22;4241;48.452;9.216;2023-05-29T05:09:26;12.60;99.90
8408;DHT22;4241;48.452;9.216;2023-05-29T05:11:54;12.70;99.90
8408;DHT22;4241;48.452;9.216;2023-05-29T05:14:21;12.60;99.90
8408;DHT22;4241;48.452;9.216;2023-05-29T05:16:48;12.90;99.90
8408;DHT22;4241;48.452;9.216;2023-05-29T05:19:16;12.80;99.90
8408;DHT22;4241;48.452;9.216;2023-05-29T05:21:43;13.00;99.90
8408;DHT22;4241;48.452;9.216;2023-05-29T05:24:10;12.90;99.90
8408;DHT22;4241;48.452;9.216;2023-05-29T05:26:37;12.70;99.90
8408;DHT22;4241;48.452;9.216;2023-05-29T05:29:05;12.80;99.90
8408;DHT22;4241;48.452;9.216;2023-05-29T05:31:32;13.10;99.90
8408;DHT22;4241;48.452;9.216;2023-05-29T05:33:58;13.20;99.90
8408;DHT22;4241;48.452;9.216;2023-05-29T05:36:25;13.10;99.90
8408;DHT22;4241;48.452;9.216;2023-05-29T05:38:52;13.20;99.90
8408;DHT22;4241;48.452;9.216;2023-05-29T05:41:19;13.30;99.90
8408;DHT22;4241;48.452;9.216;2023-05-29T05:43:46;13.20;99.90
8408;DHT22;4241;48.452;9.216;2023-05-29T05:46:14;13.20;99.90
8408;DHT22;4241;48.452;9.216;2023-05-29T05:48:42;13.30;99.90
8408;DHT22;4241;48.452;9.216;2023-05-29T05:51:09;13.30;99.90
8408;DHT22;4241;48.452;9.216;2023-05-29T05:53:37;13.80;99.90
8408;DHT22;4241;48.452;9.216;2023-05-29T05:56:04;13.60;99.90
8408;DHT22;4241;48.452;9.216;2023-05-29T05:58:31;13.80;99.90
8408;DHT22;4241;48.452;9.216;2023-05-29T06:00:57;14.20;99.90
8408;DHT22;4241;48.452;9.216;2023-05-29T06:03:26;14.00;99.90
8408;DHT22;4241;48.452;9.216;2023-05-29T06:05:53;14.20;99.90
8408;DHT22;4241;48.452;9.216;2023-05-29T06:08:20;14.40;99.90
8408;DHT22;4241;48.452;9.216;2023-05-29T06:10:47;14.50;99.90
8408;DHT22;4241;48.452;9.216;2023-05-29T06:13:14;14.60;99.90
8408;DHT22;4241;48.452;9.216;2023-05-29T06:15:42;14.80;99.90
8408;DHT22;4241;48.452;9.216;2023-05-29T06:18:09;14.90;99.90
8408;DHT22;4241;48.452;9.216;2023-05-29T06:20:37;15.00;99.90
8408;DHT22;4241;48.452;9.216;2023-05-29T06:23:12;15.20;99.90
8408;DHT22;4241;48.452;9.216;2023-05-29T06:25:39;15.40;99.90
8408;DHT22;4241;48.452;9.216;2023-05-29T06:28:06;15.50;99.90
8408;DHT22;4241;48.452;9.216;2023-05-29T06:30:54;15.60;99.90
8408;DHT22;4241;48.452;9.216;2023-05-29T06:46:59;16.70;99.90
8408;DHT22;4241;48.452;9.216;2023-05-29T06:49:25;16.80;99.90
8408;DHT22;4241;48.452;9.216;2023-05-29T06:51:52;17.00;99.90
8408;DHT22;4241;48.452;9.216;2023-05-29T06:54:19;17.20;99.90
8408;DHT22;4241;48.452;9.216;2023-05-29T06:56:46;17.40;99.90
8408;DHT22;4241;48.452;9.216;2023-05-29T06:59:13;17.50;99.90
8408;DHT22;4241;48.452;9.216;2023-05-29T07:01:39;17.70;99.90
8408;DHT22;4241;48.452;9.216;2023-05-29T07:04:08;17.90;99.90
8408;DHT22;4241;48.452;9.216;2023-05-29T07:06:34;18.10;99.90
8408;DHT22;4241;48.452;9.216;2023-05-29T07:09:01;18.20;99.90
8408;DHT22;4241;48.452;9.216;2023-05-29T07:11:28;18.40;99.90
8408;DHT22;4241;48.452;9.216;2023-05-29T07:13:55;18.50;99.90
8408;DHT22;4241;48.452;9.216;2023-05-29T07:16:21;18.60;99.90
8408;DHT22;4241;48.452;9.216;2023-05-29T07:18:48;18.70;99.90
8408;DHT22;4241;48.452;9.216;2023-05-29T07:21:17;18.90;99.90
8408;DHT22;4241;48.452;9.216;2023-05-29T07:23:44;19.00;99.90
8408;DHT22;4241;48.452;9.216;2023-05-29T07:26:11;19.20;99.90
8408;DHT22;4241;48.452;9.216;2023-05-29T07:28:38;19.10;99.90
8408;DHT22;4241;48.452;9.216;2023-05-29T07:31:04;19.30;99.90
8408;DHT22;4241;48.452;9.216;2023-05-29T07:33:31;19.30;99.90
8408;DHT22;4241;48.452;9.216;2023-05-29T07:35:58;19.50;99.90
8408;DHT22;4241;48.452;9.216;2023-05-29T07:38:26;19.60;99.90
8408;DHT22;4241;48.452;9.216;2023-05-29T07:40:53;19.70;99.90
8408;DHT22;4241;48.452;9.216;2023-05-29T07:43:20;19.80;99.90
8408;DHT22;4241;48.452;9.216;2023-05-29T07:45:47;20.00;99.90
8408;DHT22;4241;48.452;9.216;2023-05-29T07:48:13;20.10;99.90
8408;DHT22;4241;48.452;9.216;2023-05-29T07:50:40;20.20;99.90
8408;DHT22;4241;48.452;9.216;2023-05-29T07:53:07;20.30;99.90
8408;DHT22;4241;48.452;9.216;2023-05-29T07:55:35;20.40;99.90
8408;DHT22;4241;48.452;9.216;2023-05-29T07:58:02;20.60;99.90
8408;DHT22;4241;48.452;9.216;2023-05-29T08:00:29;20.60;99.90
8408;DHT22;4241;48.452;9.216;2023-05-29T08:02:56;20.50;99.90
8408;DHT22;4241;48.452;9.216;2023-05-29T08:05:23;20.70;99.90
8408;DHT22;4241;48.452;9.216;2023-05-29T08:07:50;20.80;98.90
8408;DHT22;4241;48.452;9.216;2023-05-29T08:10:17;20.90;99.90
8408;DHT22;4241;48.452;9.216;2023-05-29T08:12:45;20.90;99.90
8408;DHT22;4241;48.452;9.216;2023-05-29T08:15:12;21.20;99.40
8408;DHT22;4241;48.452;9.216;2023-05-29T08:17:39;21.50;99.90
8408;DHT22;4241;48.452;9.216;2023-05-29T08:20:07;21.40;99.80
8408;DHT22;4241;48.452;9.216;2023-05-29T08:22:35;21.40;97.20
8408;DHT22;4241;48.452;9.216;2023-05-29T08:25:02;21.60;98.20
8408;DHT22;4241;48.452;9.216;2023-05-29T08:27:29;21.70;97.70
8408;DHT22;4241;48.452;9.216;2023-05-29T08:29:57;21.90;97.70
8408;DHT22;4241;48.452;9.216;2023-05-29T08:32:24;21.90;99.80
8408;DHT22;4241;48.452;9.216;2023-05-29T08:34:51;22.30;99.30
8408;DHT22;4241;48.452;9.216;2023-05-29T08:37:18;22.50;97.30
8408;DHT22;4241;48.452;9.216;2023-05-29T08:39:45;22.70;97.50
8408;DHT22;4241;48.452;9.216;2023-05-29T08:42:13;22.90;95.60
8408;DHT22;4241;48.452;9.216;2023-05-29T08:44:47;23.10;94.20
8408;DHT22;4241;48.452;9.216;2023-05-29T08:47:17;23.30;94.80
8408;DHT22;4241;48.452;9.216;2023-05-29T08:49:51;23.60;93.10
8408;DHT22;4241;48.452;9.216;2023-05-29T08:52:21;23.70;92.10
8408;DHT22;4241;48.452;9.216;2023-05-29T08:54:48;23.70;92.90
8408;DHT22;4241;48.452;9.216;2023-05-29T08:57:15;23.80;92.40
8408;DHT22;4241;48.452;9.216;2023-05-29T08:59:44;23.90;91.50
8408;DHT22;4241;48.452;9.216;2023-05-29T09:02:11;24.10;91.30
8408;DHT22;4241;48.452;9.216;2023-05-29T09:04:41;24.10;91.30
8408;DHT22;4241;48.452;9.216;2023-05-29T09:07:11;24.30;92.40
8408;DHT22;4241;48.452;9.216;2023-05-29T09:09:38;24.50;93.20
8408;DHT22;4241;48.452;9.216;2023-05-29T09:12:05;24.70;91.90
8408;DHT22;4241;48.452;9.216;2023-05-29T09:14:34;24.90;91.60
8408;DHT22;4241;48.452;9.216;2023-05-29T09:17:02;25.00;92.40
8408;DHT22;4241;48.452;9.216;2023-05-29T09:19:29;25.10;89.90
8408;DHT22;4241;48.452;9.216;2023-05-29T09:22:02;25.10;89.30
8408;DHT22;4241;48.452;9.216;2023-05-29T09:24:29;25.00;89.90
8408;DHT22;4241;48.452;9.216;2023-05-29T09:26:56;25.10;86.80
8408;DHT22;4241;48.452;9.216;2023-05-29T09:29:25;25.20;88.80
8408;DHT22;4241;48.452;9.216;2023-05-29T09:31:52;25.40;90.00
8408;DHT22;4241;48.452;9.216;2023-05-29T09:34:18;25.50;88.10
8408;DHT22;4241;48.452;9.216;2023-05-29T09:36:48;25.80;89.60
8408;DHT22;4241;48.452;9.216;2023-05-29T09:39:18;25.70;86.60
8408;DHT22;4241;48.452;9.216;2023-05-29T09:41:45;25.60;82.70
8408;DHT22;4241;48.452;9.216;2023-05-29T09:44:14;25.60;81.30
8408;DHT22;4241;48.452;9.216;2023-05-29T09:46:41;25.70;85.90
8408;DHT22;4241;48.452;9.216;2023-05-29T09:49:11;25.60;78.90
8408;DHT22;4241;48.452;9.216;2023-05-29T09:51:37;25.50;76.70
8408;DHT22;4241;48.452;9.216;2023-05-29T09:54:13;25.60;78.20
8408;DHT22;4241;48.452;9.216;2023-05-29T09:56:42;25.40;74.60
8408;DHT22;4241;48.452;9.216;2023-05-29T09:59:11;25.60;77.80
8408;DHT22;4241;48.452;9.216;2023-05-29T10:01:40;25.60;76.00
8408;DHT22;4241;48.452;9.216;2023-05-29T10:04:08;25.70;75.80
8408;DHT22;4241;48.452;9.216;2023-05-29T10:06:36;25.90;78.30
8408;DHT22;4241;48.452;9.216;2023-05-29T10:09:06;26.10;75.60
8408;DHT22;4241;48.452;9.216;2023-05-29T10:11:35;26.20;70.60
8408;DHT22;4241;48.452;9.216;2023-05-29T10:14:06;26.30;68.90
8408;DHT22;4241;48.452;9.216;2023-05-29T10:16:34;26.40;66.80
8408;DHT22;4241;48.452;9.216;2023-05-29T10:19:05;26.50;67.10
8408;DHT22;4241;48.452;9.216;2023-05-29T10:21:37;26.50;65.50
8408;DHT22;4241;48.452;9.216;2023-05-29T10:24:07;26.40;67.20
8408;DHT22;4241;48.452;9.216;2023-05-29T10:26:37;26.50;66.00
8408;DHT22;4241;48.452;9.216;2023-05-29T10:29:11;26.40;67.70
8408;DHT22;4241;48.452;9.216;2023-05-29T10:31:52;26.30;62.00
8408;DHT22;4241;48.452;9.216;2023-05-29T10:34:30;26.50;65.60
8408;DHT22;4241;48.452;9.216;2023-05-29T10:37:04;26.60;62.30
8408;DHT22;4241;48.452;9.216;2023-05-29T10:39:32;26.50;60.90
8408;DHT22;4241;48.452;9.216;2023-05-29T10:41:59;26.40;61.60
8408;DHT22;4241;48.452;9.216;2023-05-29T10:44:45;26.40;60.60
8408;DHT22;4241;48.452;9.216;2023-05-29T10:47:12;26.40;62.40
8408;DHT22;4241;48.452;9.216;2023-05-29T10:49:49;26.40;65.40
8408;DHT22;4241;48.452;9.216;2023-05-29T10:52:18;26.60;65.20
8408;DHT22;4241;48.452;9.216;2023-05-29T10:54:54;26.70;66.60
8408;DHT22;4241;48.452;9.216;2023-05-29T10:57:21;26.80;66.80
8408;DHT22;4241;48.452;9.216;2023-05-29T10:59:59;27.10;65.10
8408;DHT22;4241;48.452;9.216;2023-05-29T11:02:26;27.10;66.40
8408;DHT22;4241;48.452;9.216;2023-05-29T11:05:18;27.30;70.10
8408;DHT22;4241;48.452;9.216;2023-05-29T11:07:52;27.20;61.80
8408;DHT22;4241;48.452;9.216;2023-05-29T11:10:41;27.20;64.50
8408;DHT22;4241;48.452;9.216;2023-05-29T11:13:08;26.80;65.30
8408;DHT22;4241;48.452;9.216;2023-05-29T11:15:36;26.60;64.90
8408;DHT22;4241;48.452;9.216;2023-05-29T11:18:06;26.60;62.70
8408;DHT22;4241;48.452;9.216;2023-05-29T11:20:37;26.70;67.20
8408;DHT22;4241;48.452;9.216;2023-05-29T11:23:08;26.80;64.80
8408;DHT22;4241;48.452;9.216;2023-05-29T11:25:38;26.80;60.00
8408;DHT22;4241;48.452;9.216;2023-05-29T11:28:05;26.80;60.00
8408;DHT22;4241;48.452;9.216;2023-05-29T11:30:45;26.80;59.10
8408;DHT22;4241;48.452;9.216;2023-05-29T11:33:23;26.90;61.00
8408;DHT22;4241;48.452;9.216;2023-05-29T11:35:55;27.20;62.00
8408;DHT22;4241;48.452;9.216;2023-05-29T11:38:23;27.10;60.60
8408;DHT22;4241;48.452;9.216;2023-05-29T11:40:50;27.10;59.90
8408;DHT22;4241;48.452;9.216;2023-05-29T11:43:17;27.30;58.80
8408;DHT22;4241;48.452;9.216;2023-05-29T11:45:45;27.50;62.00
8408;DHT22;4241;48.452;9.216;2023-05-29T11:48:11;27.40;58.80
8408;DHT22;4241;48.452;9.216;2023-05-29T11:50:38;27.50;59.30
8408;DHT22;4241;48.452;9.216;2023-05-29T11:53:06;27.60;58.40
8408;DHT22;4241;48.452;9.216;2023-05-29T11:55:34;27.50;57.20
8408;DHT22;4241;48.452;9.216;2023-05-29T11:58:02;27.60;55.90
8408;DHT22;4241;48.452;9.216;2023-05-29T12:00:31;27.50;57.70
8408;DHT22;4241;48.452;9.216;2023-05-29T12:02:59;27.70;56.30
8408;DHT22;4241;48.452;9.216;2023-05-29T12:05:29;27.60;55.00
8408;DHT22;4241;48.452;9.216;2023-05-29T12:07:57;27.40;53.20
8408;DHT22;4241;48.452;9.216;2023-05-29T12:10:26;27.50;56.00
8408;DHT22;4241;48.452;9.216;2023-05-29T12:12:54;27.60;56.40
8408;DHT22;4241;48.452;9.216;2023-05-29T12:15:21;27.80;58.00
8408;DHT22;4241;48.452;9.216;2023-05-29T12:17:49;28.00;56.50
8408;DHT22;4241;48.452;9.216;2023-05-29T12:20:18;27.90;52.70
8408;DHT22;4241;48.452;9.216;2023-05-29T12:22:46;27.70;52.70
8408;DHT22;4241;48.452;9.216;2023-05-29T12:25:14;27.80;54.30
8408;DHT22;4241;48.452;9.216;2023-05-29T12:27:43;27.90;54.50
8408;DHT22;4241;48.452;9.216;2023-05-29T12:30:13;27.90;53.20
8408;DHT22;4241;48.452;9.216;2023-05-29T12:32:42;28.10;58.00
8408;DHT22;4241;48.452;9.216;2023-05-29T12:35:14;28.30;54.40
8408;DHT22;4241;48.452;9.216;2023-05-29T12:37:47;28.50;51.50
8408;DHT22;4241;48.452;9.216;2023-05-29T12:40:18;28.30;49.70
8408;DHT22;4241;48.452;9.216;2023-05-29T12:42:46;28.40;54.20
8408;DHT22;4241;48.452;9.216;2023-05-29T12:45:13;28.50;51.60
8408;DHT22;4241;48.452;9.216;2023-05-29T12:47:55;28.40;50.90
8408;DHT22;4241;48.452;9.216;2023-05-29T12:50:24;28.20;47.50
8408;DHT22;4241;48.452;9.216;2023-05-29T12:52:57;28.30;48.60
8408;DHT22;4241;48.452;9.216;2023-05-29T12:55:24;28.20;47.20
8408;DHT22;4241;48.452;9.216;2023-05-29T12:57:51;28.30;47.40
8408;DHT22;4241;48.452;9.216;2023-05-29T13:00:19;28.20;47.70
8408;DHT22;4241;48.452;9.216;2023-05-29T13:02:47;28.30;47.80
8408;DHT22;4241;48.452;9.216;2023-05-29T13:05:14;28.20;46.30
8408;DHT22;4241;48.452;9.216;2023-05-29T13:07:45;27.80;46.60
8408;DHT22;4241;48.452;9.216;2023-05-29T13:10:13;27.70;48.30
8408;DHT22;4241;48.452;9.216;2023-05-29T13:12:40;27.60;47.60
8408;DHT22;4241;48.452;9.216;2023-05-29T13:15:09;27.70;48.60
8408;DHT22;4241;48.452;9.216;2023-05-29T13:17:37;27.80;48.00
8408;DHT22;4241;48.452;9.216;2023-05-29T13:20:07;27.80;47.80
8408;DHT22;4241;48.452;9.216;2023-05-29T13:22:35;27.70;46.40
8408;DHT22;4241;48.452;9.216;2023-05-29T13:25:02;27.80;49.20
8408;DHT22;4241;48.452;9.216;2023-05-29T13:27:34;27.70;47.80
8408;DHT22;4241;48.452;9.216;2023-05-29T13:30:01;27.60;48.50
8408;DHT22;4241;48.452;9.216;2023-05-29T13:32:28;27.80;48.40
8408;DHT22;4241;48.452;9.216;2023-05-29T13:34:55;27.70;46.30
8408;DHT22;4241;48.452;9.216;2023-05-29T13:37:22;27.70;47.30
8408;DHT22;4241;48.452;9.216;2023-05-29T13:39:50;27.60;45.30
8408;DHT22;4241;48.452;9.216;2023-05-29T13:42:18;27.50;47.80
8408;DHT22;4241;48.452;9.216;2023-05-29T13:44:47;27.50;46.70
8408;DHT22;4241;48.452;9.216;2023-05-29T13:47:14;27.60;48.80
8408;DHT22;4241;48.452;9.216;2023-05-29T13:49:41;27.60;49.30
8408;DHT22;4241;48.452;9.216;2023-05-29T13:52:08;27.60;47.40
8408;DHT22;4241;48.452;9.216;2023-05-29T13:54:35;27.40;45.80
8408;DHT22;4241;48.452;9.216;2023-05-29T13:57:03;27.30;46.20
8408;DHT22;4241;48.452;9.216;2023-05-29T13:59:30;27.10;43.90
8408;DHT22;4241;48.452;9.216;2023-05-29T14:01:58;27.00;45.20
8408;DHT22;4241;48.452;9.216;2023-05-29T14:04:25;26.90;46.60
8408;DHT22;4241;48.452;9.216;2023-05-29T14:06:53;27.00;45.40
8408;DHT22;4241;48.452;9.216;2023-05-29T14:09:20;27.20;48.20
8408;DHT22;4241;48.452;9.216;2023-05-29T14:11:52;27.30;46.60
8408;DHT22;4241;48.452;9.216;2023-05-29T14:14:19;27.60;49.90
8408;DHT22;4241;48.452;9.216;2023-05-29T14:16:46;27.60;44.90
8408;DHT22;4241;48.452;9.216;2023-05-29T14:19:15;27.60;47.30
8408;DHT22;4241;48.452;9.216;2023-05-29T14:21:41;27.70;48.80
8408;DHT22;4241;48.452;9.216;2023-05-29T14:24:08;27.90;46.90
8408;DHT22;4241;48.452;9.216;2023-05-29T14:26:35;27.90;45.10
8408;DHT22;4241;48.452;9.216;2023-05-29T14:29:02;28.00;46.50
8408;DHT22;4241;48.452;9.216;2023-05-29T14:31:29;28.00;45.00
8408;DHT22;4241;48.452;9.216;2023-05-29T14:33:56;28.00;45.70
8408;DHT22;4241;48.452;9.216;2023-05-29T14:36:24;28.10;46.60
8408;DHT22;4241;48.452;9.216;2023-05-29T14:38:51;28.30;46.50
8408;DHT22;4241;48.452;9.216;2023-05-29T14:41:18;28.50;46.20
8408;DHT22;4241;48.452;9.216;2023-05-29T14:43:45;28.50;45.30
8408;DHT22;4241;48.452;9.216;2023-05-29T14:46:12;28.40;44.50
8408;DHT22;4241;48.452;9.216;2023-05-29T14:48:39;28.30;47.20
8408;DHT22;4241;48.452;9.216;2023-05-29T14:51:05;28.40;45.00
8408;DHT22;4241;48.452;9.216;2023-05-29T14:53:35;28.20;44.80
8408;DHT22;4241;48.452;9.216;2023-05-29T14:56:04;28.30;45.70
8408;DHT22;4241;48.452;9.216;2023-05-29T14:58:33;28.40;44.80
8408;DHT22;4241;48.452;9.216;2023-05-29T15:01:00;28.30;45.30
8408;DHT22;4241;48.452;9.216;2023-05-29T15:03:27;28.40;44.80
8408;DHT22;4241;48.452;9.216;2023-05-29T15:05:54;28.60;46.40
8408;DHT22;4241;48.452;9.216;2023-05-29T15:08:21;28.70;45.80
8408;DHT22;4241;48.452;9.216;2023-05-29T15:10:49;28.90;46.40
8408;DHT22;4241;48.452;9.216;2023-05-29T15:13:17;28.90;43.30
8408;DHT22;4241;48.452;9.216;2023-05-29T15:15:44;29.20;46.10
8408;DHT22;4241;48.452;9.216;2023-05-29T15:18:10;29.10;43.30
8408;DHT22;4241;48.452;9.216;2023-05-29T15:20:37;28.90;42.50
8408;DHT22;4241;48.452;9.216;2023-05-29T15:23:04;28.70;43.30
8408;DHT22;4241;48.452;9.216;2023-05-29T15:25:31;28.60;44.30
8408;DHT22;4241;48.452;9.216;2023-05-29T15:27:59;28.60;44.70
8408;DHT22;4241;48.452;9.216;2023-05-29T15:30:26;28.50;44.40
8408;DHT22;4241;48.452;9.216;2023-05-29T15:32:53;28.30;42.50
8408;DHT22;4241;48.452;9.216;2023-05-29T15:35:20;28.20;43.60
8408;DHT22;4241;48.452;9.216;2023-05-29T15:37:47;28.40;47.50
8408;DHT22;4241;48.452;9.216;2023-05-29T15:40:13;28.80;48.10
8408;DHT22;4241;48.452;9.216;2023-05-29T15:42:40;29.10;43.90
8408;DHT22;4241;48.452;9.216;2023-05-29T15:45:09;29.20;44.40
8408;DHT22;4241;48.452;9.216;2023-05-29T15:47:36;29.50;46.90
8408;DHT22;4241;48.452;9.216;2023-05-29T15:50:03;29.60;44.00
8408;DHT22;4241;48.452;9.216;2023-05-29T15:52:30;29.50;40.70
8408;DHT22;4241;48.452;9.216;2023-05-29T15:54:57;29.60;43.30
8408;DHT22;4241;48.452;9.216;2023-05-29T15:57:23;29.90;44.70
8408;DHT22;4241;48.452;9.216;2023-05-29T15:59:50;29.90;41.30
8408;DHT22;4241;48.452;9.216;2023-05-29T16:02:18;29.90;40.50
8408;DHT22;4241;48.452;9.216;2023-05-29T16:04:45;30.20;44.50
8408;DHT22;4241;48.452;9.216;2023-05-29T16:07:12;30.10;41.10
8408;DHT22;4241;48.452;9.216;2023-05-29T16:09:39;30.20;43.00
8408;DHT22;4241;48.452;9.216;2023-05-29T16:12:09;30.30;41.70
8408;DHT22;4241;48.452;9.216;2023-05-29T16:14:37;30.50;40.10
8408;DHT22;4241;48.452;9.216;2023-05-29T16:17:04;30.30;38.30
8408;DHT22;4241;48.452;9.216;2023-05-29T16:19:33;30.20;39.10
8408;DHT22;4241;48.452;9.216;2023-05-29T16:21:59;30.10;37.90